sensor_id;sensor_type;location;lat;lon;timestamp;pressure;altitude;pressure_sealevel;temperature;humidity
45941;BME280;31858;46.008;8.978;2023-07-28T00:05:42;94385.66;;;18.52;100.00
45941;BME280;31858;46.008;8.978;2023-07-28T00:15:44;94394.81;;;18.26;100.00
45941;BME280;31858;46.008;8.978;2023-07-28T00:25:47;94380.72;;;18.35;100.00
45941;BME280;31858;46.008;8.978;2023-07-28T00:35:49;94372.19;;;18.07;100.00
45941;BME280;31858;46.008;8.978;2023-07-28T00:45:53;94381.75;;;18.24;100.00
45941;BME280;31858;46.008;8.978;2023-07-28T00:55:55;94369.91;;;18.06;100.00
45941;BME280;31858;46.008;8.978;2023-07-28T01:06:10;94379.50;;;18.07;100.00
45941;BME280;31858;46.008;8.978;2023-07-28T01:16:14;94373.03;;;17.88;100.00
45941;BME280;31858;46.008;8.978;2023-07-28T01:26:25;94377.75;;;18.00;100.00
45941;BME280;31858;46.008;8.978;2023-07-28T01:36:27;94386.84;;;17.90;100.00
45941;BME280;31858;46.008;8.978;2023-07-28T01:46:30;94374.63;;;17.85;100.00
45941;BME280;31858;46.008;8.978;2023-07-28T01:56:32;94372.88;;;17.79;100.00
45941;BME280;31858;46.008;8.978;2023-07-28T02:06:35;94387.94;;;17.76;100.00
45941;BME280;31858;46.008;8.978;2023-07-28T02:16:36;94387.50;;;17.78;100.00
45941;BME280;31858;46.008;8.978;2023-07-28T02:26:39;94377.03;;;17.64;100.00
45941;BME280;31858;46.008;8.978;2023-07-28T02:36:41;94368.22;;;17.79;100.00
45941;BME280;31858;46.008;8.978;2023-07-28T02:46:44;94357.31;;;17.50;100.00
45941;BME280;31858;46.008;8.978;2023-07-28T02:56:45;94331.22;;;17.47;100.00
45941;BME280;31858;46.008;8.978;2023-07-28T03:06:48;94321.94;;;17.32;100.00
45941;BME280;31858;46.008;8.978;2023-07-28T03:16:51;94305.44;;;17.30;100.00
45941;BME280;31858;46.008;8.978;2023-07-28T03:26:54;94318.75;;;17.37;100.00
45941;BME280;31858;46.008;8.978;2023-07-28T03:36:56;94324.19;;;17.70;100.00
45941;BME280;31858;46.008;8.978;2023-07-28T03:46:59;94313.72;;;17.55;100.00
45941;BME280;31858;46.008;8.978;2023-07-28T03:57:00;94297.63;;;17.52;100.00
45941;BME280;31858;46.008;8.978;2023-07-28T04:07:04;94302.59;;;17.37;100.00
45941;BME280;31858;46.008;8.978;2023-07-28T04:17:06;94292.66;;;17.34;100.00
45941;BME280;31858;46.008;8.978;2023-07-28T04:27:10;94297.63;;;17.19;100.00
45941;BME280;31858;46.008;8.978;2023-07-28T04:37:12;94318.06;;;17.17;100.00
45941;BME280;31858;46.008;8.978;2023-07-28T04:47:15;94332.84;;;17.09;100.00
45941;BME280;31858;46.008;8.978;2023-07-28T04:57:16;94338.66;;;17.07;100.00
45941;BME280;31858;46.008;8.978;2023-07-28T05:07:21;94346.38;;;17.05;100.00
45941;BME280;31858;46.008;8.978;2023-07-28T05:17:22;94348.22;;;17.08;100.00
45941;BME280;31858;46.008;8.978;2023-07-28T05:27:25;94358.09;;;17.15;100.00
45941;BME280;31858;46.008;8.978;2023-07-28T05:37:27;94352.94;;;17.04;100.00
45941;BME280;31858;46.008;8.978;2023-07-28T05:47:30;94375.91;;;17.09;100.00
45941;BME280;31858;46.008;8.978;2023-07-28T05:57:31;94380.09;;;17.29;100.00
45941;BME280;31858;46.008;8.978;2023-07-28T06:07:34;94376.19;;;17.14;100.00
45941;BME280;31858;46.008;8.978;2023-07-28T06:17:36;94378.25;;;17.07;100.00
45941;BME280;31858;46.008;8.978;2023-07-28T06:27:39;94393.66;;;17.06;100.00
45941;BME280;31858;46.008;8.978;2023-07-28T06:37:40;94403.53;;;17.13;100.00
45941;BME280;31858;46.008;8.978;2023-07-28T06:47:43;94390.97;;;17.06;100.00
45941;BME280;31858;46.008;8.978;2023-07-28T06:57:45;94389.75;;;17.27;100.00
45941;BME280;31858;46.008;8.978;2023-07-28T07:07:48;94394.81;;;17.25;100.00
45941;BME280;31858;46.008;8.978;2023-07-28T07:17:49;94400.13;;;17.28;100.00
45941;BME280;31858;46.008;8.978;2023-07-28T07:27:52;94403.25;;;17.43;100.00
45941;BME280;31858;46.008;8.978;2023-07-28T07:37:54;94406.75;;;17.60;100.00
45941;BME280;31858;46.008;8.978;2023-07-28T07:47:57;94397.91;;;17.59;100.00
45941;BME280;31858;46.008;8.978;2023-07-28T07:57:59;94399.97;;;17.88;100.00
45941;BME280;31858;46.008;8.978;2023-07-28T08:08:02;94410.44;;;17.86;100.00
45941;BME280;31858;46.008;8.978;2023-07-28T08:18:05;94404.63;;;18.04;100.00
45941;BME280;31858;46.008;8.978;2023-07-28T08:28:08;94408.91;;;18.17;100.00
45941;BME280;31858;46.008;8.978;2023-07-28T08:38:09;94418.13;;;18.49;100.00
45941;BME280;31858;46.008;8.978;2023-07-28T08:48:14;94414.75;;;18.61;100.00
45941;BME280;31858;46.008;8.978;2023-07-28T08:58:16;94426.84;;;18.85;100.00
45941;BME280;31858;46.008;8.978;2023-07-28T09:08:20;94406.94;;;19.08;100.00
45941;BME280;31858;46.008;8.978;2023-07-28T09:18:25;94405.97;;;19.15;100.00
45941;BME280;31858;46.008;8.978;2023-07-28T09:28:37;94414.13;;;19.40;100.00
45941;BME280;31858;46.008;8.978;2023-07-28T09:38:40;94405.81;;;19.60;100.00
45941;BME280;31858;46.008;8.978;2023-07-28T09:48:45;94402.78;;;19.83;100.00
45941;BME280;31858;46.008;8.978;2023-07-28T09:58:51;94406.13;;;20.00;100.00
45941;BME280;31858;46.008;8.978;2023-07-28T10:08:55;94403.16;;;20.33;100.00
45941;BME280;31858;46.008;8.978;2023-07-28T10:18:58;94397.38;;;20.56;100.00
45941;BME280;31858;46.008;8.978;2023-07-28T10:29:10;94393.63;;;20.75;100.00
45941;BME280;31858;46.008;8.978;2023-07-28T10:39:13;94396.13;;;20.92;100.00
45941;BME280;31858;46.008;8.978;2023-07-28T10:49:19;94388.72;;;21.27;100.00
45941;BME280;31858;46.008;8.978;2023-07-28T10:59:21;94402.41;;;21.54;100.00
45941;BME280;31858;46.008;8.978;2023-07-28T11:19:25;94398.19;;;21.93;100.00
45941;BME280;31858;46.008;8.978;2023-07-28T11:29:28;94376.72;;;22.26;100.00
45941;BME280;31858;46.008;8.978;2023-07-28T11:39:30;94371.47;;;22.41;100.00
45941;BME280;31858;46.008;8.978;2023-07-28T11:49:33;94364.53;;;22.49;100.00
45941;BME280;31858;46.008;8.978;2023-07-28T11:59:35;94366.22;;;22.92;100.00
45941;BME280;31858;46.008;8.978;2023-07-28T12:09:51;94357.59;;;22.94;100.00
45941;BME280;31858;46.008;8.978;2023-07-28T12:19:58;94368.16;;;23.10;100.00
45941;BME280;31858;46.008;8.978;2023-07-28T12:30:02;94380.66;;;23.26;100.00
45941;BME280;31858;46.008;8.978;2023-07-28T12:40:05;94387.66;;;23.60;100.00
45941;BME280;31858;46.008;8.978;2023-07-28T12:50:09;94353.16;;;23.75;88.25
45941;BME280;31858;46.008;8.978;2023-07-28T13:00:12;94326.91;;;23.63;100.00
45941;BME280;31858;46.008;8.978;2023-07-28T13:10:15;94320.50;;;23.75;95.09
45941;BME280;31858;46.008;8.978;2023-07-28T13:20:17;94344.44;;;23.62;100.00
45941;BME280;31858;46.008;8.978;2023-07-28T13:30:20;94331.84;;;23.31;100.00
45941;BME280;31858;46.008;8.978;2023-07-28T13:40:21;94325.91;;;23.84;100.00
45941;BME280;31858;46.008;8.978;2023-07-28T13:50:24;94347.25;;;23.77;100.00
45941;BME280;31858;46.008;8.978;2023-07-28T14:00:26;94330.03;;;23.37;100.00
45941;BME280;31858;46.008;8.978;2023-07-28T14:10:29;94315.00;;;23.84;100.00
45941;BME280;31858;46.008;8.978;2023-07-28T14:20:32;94309.78;;;24.28;99.48
45941;BME280;31858;46.008;8.978;2023-07-28T14:30:35;94309.78;;;24.67;93.08
45941;BME280;31858;46.008;8.978;2023-07-28T14:40:37;94295.66;;;24.83;92.43
45941;BME280;31858;46.008;8.978;2023-07-28T14:50:41;94284.69;;;24.92;91.96
45941;BME280;31858;46.008;8.978;2023-07-28T15:00:43;94291.34;;;25.35;81.96
45941;BME280;31858;46.008;8.978;2023-07-28T15:10:46;94291.84;;;25.04;82.47
45941;BME280;31858;46.008;8.978;2023-07-28T15:20:47;94295.69;;;24.68;91.71
45941;BME280;31858;46.008;8.978;2023-07-28T15:30:50;94301.78;;;24.93;95.94
45941;BME280;31858;46.008;8.978;2023-07-28T15:40:53;94295.69;;;24.98;88.00
45941;BME280;31858;46.008;8.978;2023-07-28T15:50:58;94285.97;;;24.53;100.00
45941;BME280;31858;46.008;8.978;2023-07-28T16:01:00;94310.94;;;24.36;100.00
45941;BME280;31858;46.008;8.978;2023-07-28T16:11:03;94305.94;;;24.11;100.00
45941;BME280;31858;46.008;8.978;2023-07-28T16:21:05;94300.50;;;23.87;100.00
45941;BME280;31858;46.008;8.978;2023-07-28T16:31:08;94294.84;;;23.67;100.00
45941;BME280;31858;46.008;8.978;2023-07-28T16:41:10;94293.34;;;23.33;100.00
45941;BME280;31858;46.008;8.978;2023-07-28T16:51:13;94306.25;;;23.05;100.00
45941;BME280;31858;46.008;8.978;2023-07-28T17:01:15;94304.31;;;22.96;100.00
45941;BME280;31858;46.008;8.978;2023-07-28T17:11:18;94323.50;;;22.84;100.00
45941;BME280;31858;46.008;8.978;2023-07-28T17:21:19;94314.13;;;22.75;100.00
45941;BME280;31858;46.008;8.978;2023-07-28T17:31:22;94327.44;;;22.64;100.00
45941;BME280;31858;46.008;8.978;2023-07-28T17:41:24;94319.59;;;22.66;100.00
45941;BME280;31858;46.008;8.978;2023-07-28T17:51:27;94297.88;;;22.57;100.00
45941;BME280;31858;46.008;8.978;2023-07-28T18:01:28;94295.03;;;22.06;100.00
45941;BME280;31858;46.008;8.978;2023-07-28T18:11:31;94309.91;;;22.10;100.00
45941;BME280;31858;46.008;8.978;2023-07-28T18:21:33;94312.28;;;21.90;100.00
45941;BME280;31858;46.008;8.978;2023-07-28T18:31:36;94320.72;;;21.83;100.00
45941;BME280;31858;46.008;8.978;2023-07-28T18:41:37;94312.84;;;21.67;100.00
45941;BME280;31858;46.008;8.978;2023-07-28T18:51:40;94325.25;;;21.46;100.00
45941;BME280;31858;46.008;8.978;2023-07-28T19:01:42;94326.19;;;21.21;100.00
45941;BME280;31858;46.008;8.978;2023-07-28T19:11:45;94343.41;;;21.05;100.00
45941;BME280;31858;46.008;8.978;2023-07-28T19:21:48;94358.22;;;20.92;100.00
45941;BME280;31858;46.008;8.978;2023-07-28T19:31:52;94365.41;;;20.85;100.00
45941;BME280;31858;46.008;8.978;2023-07-28T19:41:54;94367.19;;;20.79;100.00
45941;BME280;31858;46.008;8.978;2023-07-28T19:51:57;94379.50;;;20.80;100.00
45941;BME280;31858;46.008;8.978;2023-07-28T20:01:59;94387.16;;;20.73;100.00
45941;BME280;31858;46.008;8.978;2023-07-28T20:12:02;94385.94;;;20.74;100.00
45941;BME280;31858;46.008;8.978;2023-07-28T20:22:06;94400.16;;;20.65;100.00
45941;BME280;31858;46.008;8.978;2023-07-28T20:32:09;94405.75;;;20.49;100.00
45941;BME280;31858;46.008;8.978;2023-07-28T20:42:11;94401.53;;;20.48;100.00
45941;BME280;31858;46.008;8.978;2023-07-28T20:52:18;94396.44;;;20.37;100.00
45941;BME280;31858;46.008;8.978;2023-07-28T21:02:20;94395.03;;;20.33;100.00
45941;BME280;31858;46.008;8.978;2023-07-28T21:12:23;94387.38;;;20.31;100.00
45941;BME280;31858;46.008;8.978;2023-07-28T21:22:25;94390.19;;;20.28;100.00
45941;BME280;31858;46.008;8.978;2023-07-28T21:32:27;94381.03;;;20.12;100.00
45941;BME280;31858;46.008;8.978;2023-07-28T21:42:29;94382.97;;;20.12;100.00
45941;BME280;31858;46.008;8.978;2023-07-28T21:52:32;94395.75;;;19.86;100.00
45941;BME280;31858;46.008;8.978;2023-07-28T22:02:34;94404.41;;;19.81;100.00
45941;BME280;31858;46.008;8.978;2023-07-28T22:12:36;94419.44;;;19.95;100.00
45941;BME280;31858;46.008;8.978;2023-07-28T22:22:38;94415.66;;;19.92;100.00
45941;BME280;31858;46.008;8.978;2023-07-28T22:32:41;94415.00;;;19.88;100.00
45941;BME280;31858;46.008;8.978;2023-07-28T22:42:43;94434.03;;;19.72;100.00
45941;BME280;31858;46.008;8.978;2023-07-28T22:52:46;94445.06;;;19.65;100.00
45941;BME280;31858;46.008;8.978;2023-07-28T23:02:47;94425.16;;;19.59;100.00
45941;BME280;31858;46.008;8.978;2023-07-28T23:12:50;94420.63;;;19.55;100.00
45941;BME280;31858;46.008;8.978;2023-07-28T23:22:52;94415.63;;;19.41;100.00
45941;BME280;31858;46.008;8.978;2023-07-28T23:32:55;94421.38;;;19.43;100.00
45941;BME280;31858;46.008;8.978;2023-07-28T23:42:56;94407.97;;;19.40;100.00
45941;BME280;31858;46.008;8.978;2023-07-28T23:52:59;94410.53;;;19.31;100.00
